Time;durP1;ratioP1;P1;durP2;ratioP2;P2;SDS_P1;SDS_P2;PMS_P1;PMS_P2;Temp;Humidity;BMP_temperature;BMP_pressure;BME280_temperature;BME280_humidity;BME280_pressure;Samples;Min_cycle;Max_cycle;Signal;HPM_P1;HPM_P2
2022/03/24 00:00:15;;;;;;;21.02;12.23;;;5.00;54.20;;;;;;5017115;28;20233;-66
2022/03/24 00:02:41;;;;;;;21.55;12.13;;;5.00;54.20;;;;;;5018779;28;21785;-65
2022/03/24 00:05:08;;;;;;;17.63;11.80;;;5.00;54.30;;;;;;5023857;28;20041;-65
2022/03/24 00:07:35;;;;;;;22.55;12.02;;;5.00;54.40;;;;;;5018686;28;20030;-66
2022/03/24 00:10:01;;;;;;;21.90;13.27;;;5.10;55.00;;;;;;5021608;28;20042;-66
2022/03/24 00:12:27;;;;;;;20.95;12.63;;;5.10;54.40;;;;;;5013269;28;20107;-66
2022/03/24 00:14:53;;;;;;;20.67;12.50;;;5.00;54.40;;;;;;5017395;28;20044;-65
2022/03/24 00:17:18;;;;;;;19.50;12.00;;;5.00;54.30;;;;;;5021845;28;20061;-66
2022/03/24 00:19:44;;;;;;;24.40;12.88;;;5.00;54.50;;;;;;5018504;28;20067;-65
2022/03/24 00:22:10;;;;;;;18.20;11.10;;;5.00;54.50;;;;;;5018164;28;20512;-66
2022/03/24 00:24:37;;;;;;;19.77;11.75;;;4.90;54.50;;;;;;5019368;28;20041;-65
2022/03/24 00:27:03;;;;;;;17.77;11.80;;;4.90;54.50;;;;;;5023073;28;20045;-65
2022/03/24 00:29:29;;;;;;;17.52;12.35;;;4.80;54.50;;;;;;5023535;28;20034;-65
2022/03/24 00:31:54;;;;;;;18.58;11.25;;;4.70;54.60;;;;;;5016952;28;20105;-66
2022/03/24 00:34:20;;;;;;;21.58;12.10;;;4.70;55.40;;;;;;5023160;28;20373;-66
2022/03/24 00:36:45;;;;;;;21.42;12.35;;;4.60;54.90;;;;;;5022143;28;20049;-66
2022/03/24 00:39:11;;;;;;;20.80;12.63;;;4.50;54.90;;;;;;5019204;28;20042;-65
2022/03/24 00:41:37;;;;;;;20.30;12.75;;;4.50;55.10;;;;;;5018357;28;20046;-66
2022/03/24 00:44:03;;;;;;;23.15;12.82;;;4.40;55.10;;;;;;5018481;28;20033;-66
2022/03/24 00:46:31;;;;;;;22.15;12.68;;;4.40;55.30;;;;;;5015261;28;20060;-65
2022/03/24 00:48:58;;;;;;;23.95;14.07;;;4.30;55.40;;;;;;5021138;28;20036;-66
2022/03/24 00:51:24;;;;;;;24.58;13.38;;;4.30;55.50;;;;;;5020646;28;20025;-66
2022/03/24 00:53:50;;;;;;;22.20;12.80;;;4.20;55.60;;;;;;5025031;28;20041;-66
2022/03/24 00:56:17;;;;;;;24.13;13.52;;;4.20;55.70;;;;;;5024806;28;20064;-66
2022/03/24 00:58:43;;;;;;;23.02;13.05;;;4.20;56.00;;;;;;5021947;28;20046;-66
2022/03/24 01:01:12;;;;;;;20.23;11.68;;;4.10;55.90;;;;;;5013865;28;20507;-65
2022/03/24 01:03:41;;;;;;;20.33;12.20;;;4.10;56.00;;;;;;5016405;28;20045;-66
2022/03/24 01:06:07;;;;;;;21.00;11.85;;;4.00;56.10;;;;;;5025229;28;20412;-65
2022/03/24 01:08:34;;;;;;;18.98;12.10;;;4.00;56.30;;;;;;5021683;28;20030;-66
2022/03/24 01:11:01;;;;;;;20.92;11.73;;;4.00;56.40;;;;;;5019709;28;20044;-66
2022/03/24 01:13:28;;;;;;;19.55;11.30;;;3.90;56.50;;;;;;5017665;28;20091;-67
2022/03/24 01:15:54;;;;;;;19.33;11.77;;;3.90;56.50;;;;;;5015517;28;20496;-66
2022/03/24 01:18:20;;;;;;;19.80;11.68;;;3.90;56.70;;;;;;5014893;28;20375;-66
2022/03/24 01:20:46;;;;;;;18.67;10.90;;;3.90;56.70;;;;;;5019066;28;20416;-66
2022/03/24 01:23:12;;;;;;;20.35;11.48;;;3.80;56.70;;;;;;5021512;28;20038;-66
2022/03/24 01:25:42;;;;;;;16.63;10.65;;;3.80;56.80;;;;;;5024217;28;20038;-66
2022/03/24 01:28:10;;;;;;;17.50;10.75;;;3.80;56.90;;;;;;5024470;28;20056;-67
2022/03/24 01:30:40;;;;;;;18.70;11.38;;;3.80;56.90;;;;;;5015224;28;20045;-64
2022/03/24 01:33:06;;;;;;;19.00;11.52;;;3.80;57.00;;;;;;5015311;28;20068;-65
2022/03/24 01:35:32;;;;;;;16.75;10.90;;;3.80;57.00;;;;;;5013787;28;20038;-66
2022/03/24 01:37:58;;;;;;;17.42;10.68;;;3.70;57.00;;;;;;5024830;28;20241;-66
2022/03/24 01:40:24;;;;;;;18.55;10.65;;;3.70;57.00;;;;;;5024701;28;20333;-65
2022/03/24 01:42:50;;;;;;;16.90;10.68;;;3.70;57.00;;;;;;5022391;28;20034;-66
2022/03/24 01:45:16;;;;;;;18.95;10.80;;;3.70;57.00;;;;;;5024897;28;20068;-65
2022/03/24 01:47:42;;;;;;;20.30;11.80;;;3.70;57.10;;;;;;5024150;28;20044;-66
2022/03/24 01:50:10;;;;;;;19.35;11.20;;;3.70;57.20;;;;;;5024656;28;20072;-65
2022/03/24 01:52:35;;;;;;;18.35;11.40;;;3.70;57.20;;;;;;5021499;28;20160;-66
2022/03/24 01:55:05;;;;;;;18.02;10.80;;;3.70;57.00;;;;;;5019679;28;20026;-66
2022/03/24 01:57:31;;;;;;;17.40;10.68;;;3.70;57.20;;;;;;5024113;28;20586;-66
2022/03/24 01:59:58;;;;;;;18.33;11.05;;;3.70;57.10;;;;;;5024727;28;20041;-66
2022/03/24 02:02:24;;;;;;;19.23;11.27;;;3.70;57.30;;;;;;5019446;28;20083;-65
2022/03/24 02:04:50;;;;;;;17.55;10.77;;;3.70;57.20;;;;;;5021323;28;20037;-66
2022/03/24 02:07:16;;;;;;;16.52;11.07;;;3.70;57.00;;;;;;5023774;28;20164;-65
2022/03/24 02:09:42;;;;;;;18.80;11.88;;;3.70;57.70;;;;;;5024823;28;20037;-66
2022/03/24 02:12:10;;;;;;;18.90;11.23;;;3.70;57.10;;;;;;5008651;28;20034;-66
2022/03/24 02:14:36;;;;;;;19.20;11.00;;;3.70;57.20;;;;;;5023807;28;20025;-65
2022/03/24 02:17:03;;;;;;;17.92;11.23;;;3.70;57.20;;;;;;5025334;28;20036;-65
2022/03/24 02:19:29;;;;;;;18.80;11.48;;;3.70;57.30;;;;;;5019258;28;20063;-66
2022/03/24 02:21:56;;;;;;;19.52;12.05;;;3.70;57.40;;;;;;5019052;28;20538;-66
2022/03/24 02:24:23;;;;;;;20.40;11.23;;;3.70;57.50;;;;;;5022247;28;20037;-65
2022/03/24 02:26:50;;;;;;;18.67;11.00;;;3.60;57.50;;;;;;5024940;28;20566;-66
2022/03/24 02:29:17;;;;;;;20.08;11.05;;;3.60;57.50;;;;;;5017465;28;20049;-66
2022/03/24 02:31:48;;;;;;;22.08;12.07;;;3.50;57.50;;;;;;5012317;28;20041;-66
2022/03/24 02:37:05;;;;;;;24.83;10.93;;;3.40;57.70;;;;;;4999921;28;20037;-66
2022/03/24 02:39:31;;;;;;;23.35;11.38;;;3.30;57.60;;;;;;5004281;28;20304;-66
2022/03/24 02:41:58;;;;;;;19.58;11.65;;;3.30;57.80;;;;;;5001043;28;20169;-66
2022/03/24 02:44:26;;;;;;;20.80;11.95;;;3.20;58.00;;;;;;4991137;28;20569;-66
2022/03/24 02:46:54;;;;;;;19.63;11.68;;;3.20;58.30;;;;;;4991466;28;20109;-66
2022/03/24 02:49:24;;;;;;;22.10;12.93;;;3.10;58.40;;;;;;4992329;28;20581;-66
2022/03/24 02:51:54;;;;;;;21.00;12.38;;;3.10;58.50;;;;;;4989733;28;20041;-66
2022/03/24 02:54:21;;;;;;;22.17;12.38;;;3.00;58.80;;;;;;4991584;28;20040;-65
2022/03/24 02:56:48;;;;;;;18.92;12.10;;;3.00;58.80;;;;;;4994185;28;20249;-65
2022/03/24 02:59:15;;;;;;;20.73;11.30;;;3.00;59.50;;;;;;4995284;28;20030;-65
2022/03/24 03:01:43;;;;;;;18.63;11.65;;;3.00;58.80;;;;;;4992275;28;20100;-66
2022/03/24 03:04:15;;;;;;;19.15;11.80;;;3.00;58.80;;;;;;4995687;28;20133;-66
2022/03/24 03:06:40;;;;;;;21.17;11.65;;;3.00;59.10;;;;;;4994006;28;20148;-64
2022/03/24 03:09:06;;;;;;;19.38;11.32;;;3.00;58.90;;;;;;4997586;28;20121;-64
2022/03/24 03:11:33;;;;;;;20.77;10.82;;;3.00;58.80;;;;;;4994474;28;20038;-64
2022/03/24 03:14:02;;;;;;;18.92;11.20;;;3.00;59.40;;;;;;4995970;28;20034;-66
2022/03/24 03:16:28;;;;;;;21.60;11.68;;;3.00;59.10;;;;;;4997021;28;20041;-66
2022/03/24 03:18:55;;;;;;;19.70;11.25;;;3.00;58.90;;;;;;5005539;28;20040;-64
2022/03/24 03:21:21;;;;;;;23.25;12.20;;;3.00;59.00;;;;;;5014427;28;20033;-64
2022/03/24 03:23:47;;;;;;;22.75;12.82;;;3.10;58.90;;;;;;5012568;28;20116;-66
2022/03/24 03:26:15;;;;;;;20.10;12.07;;;3.00;58.90;;;;;;5020604;28;20122;-65
2022/03/24 03:28:41;;;;;;;23.08;12.10;;;3.00;59.00;;;;;;5013276;28;20400;-66
2022/03/24 03:31:06;;;;;;;21.73;12.48;;;3.00;59.10;;;;;;5007693;28;20042;-64
2022/03/24 03:33:32;;;;;;;21.85;12.35;;;2.90;59.20;;;;;;5015816;28;20137;-66
2022/03/24 03:35:59;;;;;;;21.75;12.32;;;2.90;59.20;;;;;;5019516;28;20064;-65
2022/03/24 03:38:26;;;;;;;23.40;12.40;;;2.90;59.20;;;;;;5014240;28;20034;-65
2022/03/24 03:40:53;;;;;;;24.25;12.68;;;2.90;59.10;;;;;;5016560;28;20532;-66
2022/03/24 03:43:19;;;;;;;24.70;13.10;;;3.00;59.00;;;;;;5020606;28;20124;-65
2022/03/24 03:45:45;;;;;;;24.35;12.63;;;2.90;58.90;;;;;;5021892;28;20171;-66
2022/03/24 03:48:11;;;;;;;20.63;12.35;;;3.00;58.90;;;;;;5017646;28;20500;-66
2022/03/24 03:50:38;;;;;;;23.20;12.88;;;3.00;58.90;;;;;;5012652;28;20045;-65
2022/03/24 03:53:03;;;;;;;21.30;11.95;;;3.00;59.00;;;;;;5016157;28;20054;-65
2022/03/24 03:55:30;;;;;;;22.45;11.63;;;3.00;59.10;;;;;;5012369;28;20076;-66
2022/03/24 03:57:56;;;;;;;20.75;12.20;;;3.00;59.00;;;;;;5010191;28;20038;-65
2022/03/24 04:03:06;;;;;;;20.63;11.30;;;3.00;59.00;;;;;;5014627;28;20069;-65
2022/03/24 04:05:35;;;;;;;20.05;11.25;;;2.90;58.90;;;;;;5015326;28;20045;-66
2022/03/24 04:08:01;;;;;;;21.98;11.45;;;2.90;58.90;;;;;;5014807;28;20095;-66
2022/03/24 04:10:27;;;;;;;21.60;11.93;;;2.90;59.10;;;;;;5016790;28;20061;-66
2022/03/24 04:12:57;;;;;;;20.13;11.45;;;2.80;59.00;;;;;;5017197;28;20040;-65
2022/03/24 04:15:23;;;;;;;16.90;11.07;;;2.80;59.30;;;;;;5022251;28;20433;-65
2022/03/24 04:17:50;;;;;;;23.60;11.63;;;2.70;59.20;;;;;;5022542;28;20045;-65
2022/03/24 04:20:20;;;;;;;20.90;11.15;;;2.70;59.20;;;;;;5020421;28;20039;-65
2022/03/24 04:22:48;;;;;;;21.20;11.35;;;2.70;59.10;;;;;;5021048;28;20064;-66
2022/03/24 04:25:14;;;;;;;22.73;11.82;;;2.60;59.00;;;;;;5021566;28;20099;-66
2022/03/24 04:27:40;;;;;;;21.58;11.57;;;2.70;59.10;;;;;;5016385;28;20052;-65
2022/03/24 04:30:06;;;;;;;20.63;11.95;;;2.70;59.10;;;;;;5020822;28;20120;-65
2022/03/24 04:32:32;;;;;;;21.63;12.40;;;2.70;59.30;;;;;;5022523;28;20068;-65
2022/03/24 04:34:58;;;;;;;20.30;12.27;;;2.60;59.20;;;;;;5012831;28;20104;-66
2022/03/24 04:37:25;;;;;;;22.75;12.45;;;2.60;59.30;;;;;;5019452;28;20048;-65
2022/03/24 04:39:51;;;;;;;21.83;13.02;;;2.60;59.20;;;;;;5016315;28;20037;-63
2022/03/24 04:42:17;;;;;;;20.40;12.05;;;2.60;59.40;;;;;;5021131;28;20090;-66
2022/03/24 04:44:42;;;;;;;22.75;12.93;;;2.60;59.50;;;;;;5013853;28;20157;-63
2022/03/24 04:47:08;;;;;;;21.98;12.00;;;2.50;59.40;;;;;;5013404;28;20521;-66
2022/03/24 04:49:33;;;;;;;21.65;11.40;;;2.50;59.50;;;;;;5016834;28;20057;-64
2022/03/24 04:51:59;;;;;;;19.67;11.25;;;2.40;59.60;;;;;;5017569;28;20174;-65
2022/03/24 04:54:25;;;;;;;22.45;11.82;;;2.40;59.60;;;;;;5014480;28;20040;-64
2022/03/24 04:56:50;;;;;;;24.17;12.52;;;2.40;59.50;;;;;;5004774;28;20048;-65
2022/03/24 04:59:16;;;;;;;21.90;12.95;;;2.40;59.60;;;;;;5022409;28;20034;-65
2022/03/24 05:01:41;;;;;;;19.92;11.65;;;2.40;59.80;;;;;;5016196;28;20489;-66
2022/03/24 05:04:11;;;;;;;22.70;12.35;;;2.40;59.80;;;;;;5020698;28;20121;-65
2022/03/24 05:06:36;;;;;;;20.70;12.13;;;2.40;59.80;;;;;;5024070;28;20025;-65
2022/03/24 05:09:02;;;;;;;20.55;12.38;;;2.30;59.80;;;;;;5023053;28;20036;-65
2022/03/24 05:11:27;;;;;;;23.30;12.32;;;2.30;59.80;;;;;;5009340;28;20045;-65
2022/03/24 05:13:53;;;;;;;20.13;11.77;;;2.30;59.90;;;;;;5017260;28;20397;-66
2022/03/24 05:16:19;;;;;;;19.52;11.73;;;2.20;59.80;;;;;;5016487;28;20041;-65
2022/03/24 05:18:45;;;;;;;20.23;11.38;;;2.20;59.90;;;;;;5017066;28;20464;-65
2022/03/24 05:21:12;;;;;;;22.92;11.88;;;2.20;59.90;;;;;;5020742;28;20378;-65
2022/03/24 05:23:38;;;;;;;20.35;11.27;;;2.10;59.80;;;;;;5020231;28;20098;-66
2022/03/24 05:26:03;;;;;;;21.83;11.90;;;2.20;60.00;;;;;;5018930;28;20505;-66
2022/03/24 05:28:29;;;;;;;26.95;13.05;;;2.20;60.00;;;;;;5014472;28;20553;-65
2022/03/24 05:30:55;;;;;;;23.50;12.40;;;2.20;60.00;;;;;;5011328;28;20030;-64
2022/03/24 05:33:20;;;;;;;21.58;11.55;;;2.20;60.10;;;;;;5020177;28;20057;-65
2022/03/24 05:35:46;;;;;;;20.92;12.07;;;2.20;60.10;;;;;;5022747;28;20400;-65
2022/03/24 05:38:12;;;;;;;26.17;12.98;;;2.20;60.00;;;;;;5028151;28;20455;-63
2022/03/24 05:40:39;;;;;;;23.63;13.50;;;2.20;60.00;;;;;;5020242;28;20636;-65
2022/03/24 05:43:05;;;;;;;24.80;13.80;;;2.10;60.20;;;;;;5024158;28;20040;-65
2022/03/24 05:45:31;;;;;;;27.55;14.90;;;2.10;60.20;;;;;;5026426;28;20021;-66
2022/03/24 05:47:57;;;;;;;29.40;15.60;;;2.10;60.40;;;;;;5022687;28;20033;-66
2022/03/24 05:50:24;;;;;;;33.95;15.95;;;2.10;60.60;;;;;;5025781;28;20041;-65
2022/03/24 05:52:50;;;;;;;29.95;14.82;;;2.10;60.70;;;;;;5024994;28;20100;-65
2022/03/24 05:55:19;;;;;;;28.30;15.23;;;2.10;60.70;;;;;;5027891;28;20037;-65
2022/03/24 05:57:44;;;;;;;26.77;15.27;;;2.10;61.00;;;;;;5021080;28;20075;-65
2022/03/24 06:00:11;;;;;;;35.20;15.63;;;2.10;60.80;;;;;;5025726;28;20033;-65
2022/03/24 06:02:37;;;;;;;29.75;16.13;;;2.10;60.90;;;;;;5026110;28;20073;-65
2022/03/24 06:05:05;;;;;;;31.10;16.40;;;2.10;61.10;;;;;;5017314;28;20040;-65
2022/03/24 06:07:33;;;;;;;28.55;15.52;;;2.20;61.30;;;;;;5024638;28;20038;-65
2022/03/24 06:09:58;;;;;;;27.55;15.85;;;2.20;61.30;;;;;;5022352;28;20049;-65
2022/03/24 06:12:25;;;;;;;26.60;14.35;;;2.30;61.30;;;;;;5016437;28;20045;-63
2022/03/24 06:14:51;;;;;;;28.55;15.02;;;2.30;61.20;;;;;;5027419;28;20124;-64
2022/03/24 06:17:18;;;;;;;30.50;16.33;;;2.30;61.20;;;;;;5027626;28;20121;-65
2022/03/24 06:19:45;;;;;;;27.42;13.70;;;2.40;61.30;;;;;;5025191;28;20400;-65
2022/03/24 06:22:12;;;;;;;29.08;14.27;;;2.40;61.20;;;;;;5023977;28;20440;-64
2022/03/24 06:24:38;;;;;;;29.92;15.05;;;2.50;61.20;;;;;;5021579;28;20091;-65
2022/03/24 06:27:04;;;;;;;33.08;14.90;;;2.50;61.40;;;;;;5022155;28;20030;-65
2022/03/24 06:29:29;;;;;;;30.45;14.98;;;2.60;61.40;;;;;;5024992;28;20485;-65
2022/03/24 06:31:55;;;;;;;31.85;15.30;;;2.60;61.50;;;;;;5022750;28;20076;-64
2022/03/24 06:34:21;;;;;;;26.27;14.30;;;2.70;61.70;;;;;;5020414;28;20037;-65
2022/03/24 06:36:46;;;;;;;28.25;15.50;;;2.70;61.60;;;;;;5025133;28;20443;-64
2022/03/24 06:39:12;;;;;;;30.00;14.90;;;2.80;61.80;;;;;;5027195;28;20037;-65
2022/03/24 06:41:38;;;;;;;29.27;16.27;;;2.80;62.00;;;;;;5024653;28;20397;-65
2022/03/24 06:44:06;;;;;;;30.63;15.00;;;2.80;62.10;;;;;;5023261;28;20037;-65
2022/03/24 06:46:32;;;;;;;41.75;16.30;;;2.90;62.10;;;;;;5025426;28;20049;-64
2022/03/24 06:48:59;;;;;;;35.78;15.27;;;3.00;62.10;;;;;;5023721;28;20087;-65
2022/03/24 06:51:25;;;;;;;33.53;16.00;;;3.10;62.30;;;;;;5021691;28;20045;-64
2022/03/24 06:53:51;;;;;;;33.15;15.15;;;3.10;62.20;;;;;;5022654;28;20038;-66
2022/03/24 06:56:17;;;;;;;29.73;15.35;;;3.20;62.30;;;;;;5026770;28;20037;-65
2022/03/24 06:58:43;;;;;;;39.72;16.02;;;3.30;62.40;;;;;;5019480;28;20076;-65
2022/03/24 07:01:10;;;;;;;32.08;15.70;;;3.40;62.50;;;;;;5024535;28;20120;-65
2022/03/24 07:03:37;;;;;;;30.55;15.48;;;3.50;62.70;;;;;;5026526;28;20034;-65
2022/03/24 07:06:03;;;;;;;29.02;14.82;;;3.60;62.60;;;;;;5022320;28;20025;-64
2022/03/24 07:08:29;;;;;;;38.42;16.17;;;3.70;62.60;;;;;;5025090;28;20124;-60
2022/03/24 07:10:55;;;;;;;36.42;17.50;;;3.80;62.30;;;;;;5015995;28;20076;-65
2022/03/24 07:13:20;;;;;;;35.72;17.52;;;3.90;62.10;;;;;;5018278;28;20156;-65
2022/03/24 07:15:46;;;;;;;40.83;17.45;;;4.00;62.10;;;;;;5023515;28;20076;-65
2022/03/24 07:18:12;;;;;;;34.78;18.23;;;4.10;61.90;;;;;;5026808;28;20124;-62
2022/03/24 07:20:38;;;;;;;30.10;16.10;;;4.20;62.00;;;;;;5024610;28;20038;-65
2022/03/24 07:23:06;;;;;;;48.70;17.33;;;4.30;61.80;;;;;;5024768;28;20100;-65
2022/03/24 07:25:31;;;;;;;34.97;17.65;;;4.40;61.60;;;;;;5024569;28;20033;-65
2022/03/24 07:27:58;;;;;;;36.60;18.15;;;4.50;61.70;;;;;;5025120;28;20033;-65
2022/03/24 07:30:23;;;;;;;38.15;17.80;;;4.70;61.70;;;;;;5020958;28;20344;-68
2022/03/24 07:35:34;;;;;;;31.27;17.17;;;5.00;61.70;;;;;;6002383;22;20035;-62
2022/03/24 07:38:00;;;;;;;38.13;17.38;;;5.10;61.10;;;;;;4973054;28;20039;-66
2022/03/24 07:40:26;;;;;;;37.80;17.83;;;5.20;60.90;;;;;;4976817;28;20530;-67
2022/03/24 07:42:53;;;;;;;37.25;17.85;;;5.40;60.70;;;;;;4978681;28;20444;-65
2022/03/24 07:45:22;;;;;;;32.85;16.48;;;5.50;60.60;;;;;;4978358;28;20089;-67
2022/03/24 07:48:07;;;;;;;33.58;16.45;;;5.60;60.60;;;;;;4977265;28;20034;-66
2022/03/24 07:50:33;;;;;;;33.15;17.02;;;5.80;61.10;;;;;;4977386;28;20038;-66
2022/03/24 07:53:14;;;;;;;27.80;15.55;;;5.90;60.40;;;;;;4983904;28;20073;-67
2022/03/24 07:55:43;;;;;;;26.85;15.07;;;6.10;60.60;;;;;;4992599;28;20090;-67
2022/03/24 07:58:10;;;;;;;32.42;15.38;;;6.30;60.30;;;;;;4978396;28;20042;-66
2022/03/24 08:00:36;;;;;;;27.95;14.13;;;6.40;60.00;;;;;;4977586;28;20046;-67
2022/03/24 08:03:02;;;;;;;24.98;14.00;;;6.60;59.60;;;;;;4977660;28;20069;-67
2022/03/24 08:05:29;;;;;;;26.63;14.05;;;6.80;59.10;;;;;;4977189;28;20066;-68
2022/03/24 08:07:55;;;;;;;25.27;14.63;;;7.00;58.60;;;;;;4978505;28;20042;-66
2022/03/24 08:10:21;;;;;;;25.77;14.57;;;7.20;58.30;;;;;;4993696;28;20042;-66
2022/03/24 08:12:46;;;;;;;24.95;14.48;;;7.30;58.10;;;;;;4977873;28;20405;-67
2022/03/24 08:15:12;;;;;;;24.67;14.32;;;7.50;57.70;;;;;;4980934;28;20035;-66
2022/03/24 08:17:38;;;;;;;24.10;14.27;;;7.70;57.40;;;;;;4984703;28;20404;-66
2022/03/24 08:20:05;;;;;;;23.60;14.00;;;7.90;57.00;;;;;;4981784;28;20129;-66
2022/03/24 08:22:30;;;;;;;23.17;14.93;;;8.00;56.70;;;;;;4980380;28;20355;-66
2022/03/24 08:24:56;;;;;;;24.63;14.55;;;8.20;56.70;;;;;;4981930;28;20026;-68
2022/03/24 08:27:22;;;;;;;25.17;14.93;;;8.30;56.30;;;;;;4981292;28;20046;-67
2022/03/24 08:29:47;;;;;;;23.00;14.00;;;8.40;56.10;;;;;;4981535;28;20038;-66
2022/03/24 08:32:13;;;;;;;30.00;14.40;;;8.60;56.00;;;;;;4978875;28;20039;-66
2022/03/24 08:34:39;;;;;;;22.50;13.43;;;8.70;56.00;;;;;;4981851;28;20041;-66
2022/03/24 08:37:05;;;;;;;25.02;13.55;;;8.80;55.60;;;;;;4986447;28;20069;-67
2022/03/24 08:39:31;;;;;;;23.60;14.75;;;9.00;55.20;;;;;;4978482;28;20092;-67
2022/03/24 08:41:56;;;;;;;24.25;14.60;;;9.20;54.70;;;;;;4980282;28;20034;-67
2022/03/24 08:44:22;;;;;;;22.55;13.85;;;9.30;54.50;;;;;;4980042;28;20035;-66
2022/03/24 08:46:48;;;;;;;20.67;13.13;;;9.50;54.10;;;;;;4979547;28;20057;-67
2022/03/24 08:49:13;;;;;;;30.98;14.63;;;9.70;53.90;;;;;;4979363;28;20525;-67
2022/03/24 08:51:39;;;;;;;22.45;14.20;;;9.90;53.70;;;;;;4979242;28;20062;-67
2022/03/24 08:54:05;;;;;;;20.88;13.38;;;10.00;53.50;;;;;;4980790;28;20081;-68
2022/03/24 08:56:31;;;;;;;19.70;13.25;;;10.20;53.10;;;;;;4981261;28;20118;-67
2022/03/24 08:58:57;;;;;;;18.70;13.13;;;10.30;52.80;;;;;;4981251;28;20114;-68
2022/03/24 09:01:22;;;;;;;20.13;12.90;;;10.50;52.30;;;;;;4978167;28;20469;-68
2022/03/24 09:03:51;;;;;;;20.60;13.20;;;10.70;52.00;;;;;;4977341;28;20501;-67
2022/03/24 09:06:17;;;;;;;22.00;13.63;;;10.80;51.80;;;;;;4995774;28;20035;-67
2022/03/24 09:08:43;;;;;;;21.27;13.40;;;10.90;51.60;;;;;;4979349;28;20139;-67
2022/03/24 09:11:09;;;;;;;22.25;13.70;;;11.10;51.40;;;;;;4978585;28;20382;-66
2022/03/24 09:13:36;;;;;;;20.63;13.52;;;11.20;50.90;;;;;;4981593;28;20034;-68
2022/03/24 09:16:02;;;;;;;22.15;12.63;;;11.40;50.60;;;;;;4981399;28;20034;-68
2022/03/24 09:18:27;;;;;;;21.85;12.82;;;11.50;50.70;;;;;;4980531;28;20124;-69
2022/03/24 09:20:53;;;;;;;20.33;12.57;;;11.70;50.30;;;;;;4981800;28;20042;-66
2022/03/24 09:23:19;;;;;;;18.67;12.65;;;11.80;50.30;;;;;;4981530;28;20102;-67
2022/03/24 09:25:45;;;;;;;19.85;12.55;;;11.90;50.00;;;;;;4981706;28;20041;-67
2022/03/24 09:28:11;;;;;;;21.23;12.38;;;12.00;49.70;;;;;;4986141;28;20063;-67
2022/03/24 09:30:37;;;;;;;19.10;12.35;;;12.20;50.30;;;;;;4981542;28;20600;-67
2022/03/24 09:33:03;;;;;;;19.15;12.13;;;12.30;49.20;;;;;;4985319;28;20437;-65
2022/03/24 09:35:28;;;;;;;21.23;12.68;;;12.40;49.20;;;;;;4980932;28;20053;-68
2022/03/24 09:37:54;;;;;;;18.83;12.40;;;12.50;49.20;;;;;;4980821;28;20557;-68
2022/03/24 09:40:20;;;;;;;17.83;12.32;;;12.60;49.10;;;;;;4980999;28;20520;-67
2022/03/24 09:42:46;;;;;;;22.38;12.48;;;12.70;48.90;;;;;;4979658;28;20053;-67
2022/03/24 09:45:13;;;;;;;19.23;12.18;;;12.90;49.30;;;;;;4979999;28;20038;-66
2022/03/24 09:47:40;;;;;;;19.13;12.77;;;13.00;48.30;;;;;;4994877;28;20030;-68
2022/03/24 09:50:07;;;;;;;21.13;11.75;;;13.10;47.40;;;;;;4981508;28;20042;-67
2022/03/24 09:52:33;;;;;;;15.68;11.00;;;13.20;47.50;;;;;;4980450;28;20560;-67
2022/03/24 09:54:58;;;;;;;19.88;12.30;;;13.30;47.00;;;;;;4981099;28;20035;-69
2022/03/24 09:57:24;;;;;;;16.48;11.65;;;13.50;47.00;;;;;;4980796;28;20039;-68
2022/03/24 09:59:50;;;;;;;15.68;11.10;;;13.60;46.70;;;;;;4981027;28;20160;-67
2022/03/24 10:02:16;;;;;;;18.88;11.45;;;13.70;46.60;;;;;;4979634;28;20122;-67
2022/03/24 10:04:51;;;;;;;17.13;11.27;;;13.80;46.30;;;;;;4980139;28;20034;-67
2022/03/24 10:07:18;;;;;;;19.23;11.95;;;14.00;45.70;;;;;;4995807;28;20041;-67
2022/03/24 10:09:45;;;;;;;17.85;11.48;;;14.10;46.00;;;;;;4980177;28;20034;-67
2022/03/24 10:12:36;;;;;;;22.08;11.82;;;14.20;45.80;;;;;;4977813;28;20038;-67
2022/03/24 10:15:05;;;;;;;15.68;11.55;;;14.40;44.70;;;;;;4978931;28;20057;-67
2022/03/24 10:17:31;;;;;;;17.90;12.30;;;14.50;45.10;;;;;;4979784;28;20050;-68
2022/03/24 10:20:03;;;;;;;17.80;12.57;;;14.60;45.00;;;;;;4979884;28;20030;-68
2022/03/24 10:22:29;;;;;;;20.15;12.73;;;14.70;44.20;;;;;;4979806;28;20042;-65
2022/03/24 10:24:55;;;;;;;18.92;11.90;;;14.80;44.40;;;;;;4979383;28;20030;-69
2022/03/24 10:27:25;;;;;;;17.10;11.75;;;15.00;44.50;;;;;;4979490;28;20034;-68
2022/03/24 10:29:56;;;;;;;16.65;12.10;;;15.10;45.00;;;;;;4978465;28;20077;-69
2022/03/24 10:32:26;;;;;;;18.52;13.10;;;15.20;43.50;;;;;;4979890;28;20118;-69
2022/03/24 10:34:56;;;;;;;17.77;12.48;;;15.30;42.70;;;;;;4977211;28;20022;-66
2022/03/24 10:37:26;;;;;;;17.35;12.18;;;15.40;42.00;;;;;;4978128;28;20493;-67
2022/03/24 10:40:06;;;;;;;17.35;11.77;;;15.50;42.30;;;;;;4979249;28;20412;-67
2022/03/24 10:42:37;;;;;;;14.77;11.13;;;15.70;41.60;;;;;;4979312;28;20034;-69
2022/03/24 10:45:14;;;;;;;18.35;11.98;;;15.70;41.80;;;;;;4979712;28;20105;-67
2022/03/24 10:47:49;;;;;;;15.85;11.90;;;15.80;41.40;;;;;;4978728;28;20037;-69
2022/03/24 10:50:39;;;;;;;14.82;10.27;;;15.90;40.60;;;;;;4993538;28;20073;-66
2022/03/24 10:53:12;;;;;;;16.33;10.95;;;16.00;40.80;;;;;;4979148;28;20037;-67
2022/03/24 10:55:44;;;;;;;17.15;11.75;;;16.10;41.60;;;;;;4978524;28;20034;-69
2022/03/24 10:58:38;;;;;;;16.70;11.48;;;16.20;40.90;;;;;;4978643;28;20085;-67
2022/03/24 11:01:07;;;;;;;16.33;11.10;;;16.30;40.70;;;;;;4978586;28;20030;-67
2022/03/24 11:03:33;;;;;;;16.00;11.05;;;16.40;41.20;;;;;;4976451;28;20038;-67
2022/03/24 11:06:27;;;;;;;16.67;10.70;;;16.50;40.70;;;;;;4961644;28;20039;-70
2022/03/24 11:08:57;;;;;;;16.00;10.70;;;16.70;39.90;;;;;;4956603;28;20059;-69
2022/03/24 11:11:23;;;;;;;15.10;10.30;;;16.80;40.30;;;;;;4975844;28;20501;-69
2022/03/24 11:13:52;;;;;;;17.70;11.85;;;16.90;39.80;;;;;;4967415;28;20129;-67
2022/03/24 11:16:22;;;;;;;14.00;10.75;;;17.00;39.00;;;;;;4959887;28;20182;-66
2022/03/24 11:18:50;;;;;;;17.20;12.05;;;17.20;39.00;;;;;;4978642;28;20045;-68
2022/03/24 11:21:20;;;;;;;12.27;10.07;;;17.30;39.00;;;;;;4978114;28;20600;-67
2022/03/24 11:23:46;;;;;;;18.65;10.80;;;17.30;38.50;;;;;;4979158;28;20039;-67
2022/03/24 11:26:12;;;;;;;13.75;10.57;;;17.40;38.60;;;;;;4964716;28;20031;-67
2022/03/24 11:28:39;;;;;;;13.38;9.68;;;17.50;36.90;;;;;;4961425;28;20041;-67
2022/03/24 11:31:10;;;;;;;13.45;9.75;;;17.60;37.20;;;;;;4979021;28;20401;-69
2022/03/24 11:33:45;;;;;;;14.25;9.90;;;17.60;36.60;;;;;;4969427;28;20023;-68
2022/03/24 11:36:12;;;;;;;11.93;9.60;;;17.70;35.60;;;;;;4959131;28;20038;-68
2022/03/24 11:38:39;;;;;;;17.30;10.35;;;17.70;36.40;;;;;;4976389;28;20038;-68
2022/03/24 11:41:16;;;;;;;13.98;10.07;;;17.80;35.80;;;;;;4973463;28;20232;-68
2022/03/24 11:43:48;;;;;;;13.73;10.07;;;17.80;34.80;;;;;;4959391;28;20041;-67
2022/03/24 11:46:27;;;;;;;13.98;9.82;;;17.90;36.00;;;;;;4976696;28;20589;-68
2022/03/24 11:49:19;;;;;;;12.18;10.02;;;17.90;35.50;;;;;;4977433;28;20070;-67
2022/03/24 11:51:51;;;;;;;13.40;10.45;;;18.00;35.00;;;;;;4963087;28;20031;-68
2022/03/24 11:54:30;;;;;;;13.63;10.60;;;18.10;35.60;;;;;;4978622;28;20041;-67
2022/03/24 11:57:43;;;;;;;16.23;11.07;;;18.10;35.30;;;;;;4977982;28;20035;-66
2022/03/24 12:00:12;;;;;;;18.65;11.20;;;18.10;34.80;;;;;;4945899;28;20573;-67
2022/03/24 12:02:39;;;;;;;13.75;10.40;;;18.20;35.00;;;;;;4979506;28;20042;-67
2022/03/24 12:05:05;;;;;;;12.88;9.70;;;18.20;35.40;;;;;;4975971;28;20046;-67
2022/03/24 12:07:31;;;;;;;15.77;10.10;;;18.20;35.10;;;;;;4959001;28;20039;-69
2022/03/24 12:10:08;;;;;;;13.75;10.90;;;18.30;35.10;;;;;;4975601;28;20041;-67
2022/03/24 12:12:34;;;;;;;14.98;9.77;;;18.30;34.60;;;;;;4974174;28;20062;-65
2022/03/24 12:15:22;;;;;;;14.45;10.20;;;18.40;35.20;;;;;;4962054;28;20125;-67
2022/03/24 12:18:07;;;;;;;12.43;9.48;;;18.40;34.60;;;;;;4972919;28;20054;-67
2022/03/24 12:20:40;;;;;;;12.50;9.65;;;18.50;34.30;;;;;;4995360;28;20134;-68
2022/03/24 12:23:06;;;;;;;13.60;10.30;;;18.50;34.30;;;;;;4960097;28;20359;-69
2022/03/24 12:25:33;;;;;;;16.85;9.75;;;18.60;34.50;;;;;;4971588;28;20113;-67
2022/03/24 12:28:06;;;;;;;14.25;10.43;;;18.60;34.50;;;;;;4982547;28;20038;-67
2022/03/24 12:30:49;;;;;;;13.73;9.80;;;18.60;33.50;;;;;;4978249;28;20438;-67
2022/03/24 12:33:16;;;;;;;16.90;9.75;;;18.70;33.40;;;;;;4969326;28;20039;-67
2022/03/24 12:35:48;;;;;;;12.38;9.23;;;18.70;32.80;;;;;;4981073;28;20038;-67
2022/03/24 12:38:35;;;;;;;10.35;8.68;;;18.70;32.00;;;;;;4964432;28;20053;-70
2022/03/24 12:41:04;;;;;;;11.30;8.57;;;18.70;31.70;;;;;;4976333;28;20038;-69
2022/03/24 12:43:49;;;;;;;13.68;9.57;;;18.80;33.00;;;;;;4969657;28;20398;-68